createdAt,value
2023-03-05T00:01:30.005Z,83.11
2023-03-05T00:04:15.635Z,83.25
2023-03-05T00:07:00.447Z,83.27
2023-03-05T00:09:45.245Z,83.30
2023-03-05T00:12:30.800Z,83.99
2023-03-05T00:15:16.096Z,83.67
2023-03-05T00:18:01.614Z,83.68
2023-03-05T00:20:46.781Z,84.13
2023-03-05T00:23:31.674Z,83.74
2023-03-05T00:26:19.512Z,83.95
2023-03-05T00:29:04.972Z,83.91
2023-03-05T00:31:50.329Z,84.40
2023-03-05T00:34:36.484Z,84.45
2023-03-05T00:37:21.262Z,85.17
2023-03-05T00:40:07.006Z,84.74
2023-03-05T00:42:51.989Z,83.99
2023-03-05T00:45:37.510Z,84.78
2023-03-05T00:48:25.808Z,84.93
2023-03-05T00:51:10.990Z,84.38
2023-03-05T00:53:56.305Z,84.79
2023-03-05T00:56:41.437Z,84.08
2023-03-05T00:59:27.857Z,84.69
2023-03-05T01:02:13.200Z,84.54
2023-03-05T01:04:58.701Z,84.48
2023-03-05T01:07:43.708Z,84.19
2023-03-05T01:10:37.408Z,84.40
2023-03-05T01:13:23.112Z,83.92
2023-03-05T01:16:08.406Z,83.37
2023-03-05T01:18:53.772Z,83.82
2023-03-05T01:21:38.859Z,83.64
2023-03-05T01:24:24.192Z,84.04
2023-03-05T01:27:08.975Z,84.05
2023-03-05T01:29:54.354Z,83.52
2023-03-05T01:32:39.510Z,84.31
2023-03-05T01:35:26.353Z,84.01
2023-03-05T01:38:11.431Z,84.60
2023-03-05T01:40:56.430Z,84.22
2023-03-05T01:43:43.059Z,84.26
2023-03-05T01:46:34.699Z,84.47
2023-03-05T01:49:25.040Z,84.81
2023-03-05T01:52:17.993Z,84.48
2023-03-05T01:55:12.015Z,85.13
2023-03-05T01:58:04.803Z,85.20
2023-03-05T02:00:52.913Z,85.04
2023-03-05T02:03:38.239Z,85.11
2023-03-05T02:06:23.716Z,85.59
2023-03-05T02:09:08.985Z,84.66
2023-03-05T02:11:55.233Z,84.61
2023-03-05T02:14:42.860Z,84.68
2023-03-05T02:17:27.973Z,85.33
2023-03-05T02:20:20.344Z,84.83
2023-03-05T02:23:05.358Z,84.64
2023-03-05T02:25:51.434Z,85.14
2023-03-05T02:28:44.255Z,84.54
2023-03-05T02:31:29.526Z,85.26
2023-03-05T02:34:14.869Z,84.50
2023-03-05T02:37:00.156Z,85.43
2023-03-05T02:39:45.025Z,85.01
2023-03-05T02:42:33.402Z,84.21
2023-03-05T02:45:18.297Z,84.98
2023-03-05T02:48:03.479Z,84.33
2023-03-05T02:50:49.723Z,84.65
2023-03-05T02:53:35.023Z,84.34
2023-03-05T02:56:20.641Z,84.23
2023-03-05T02:59:05.375Z,84.66
2023-03-05T03:01:50.776Z,84.31
2023-03-05T03:04:35.757Z,84.53
2023-03-05T03:07:20.801Z,84.93
2023-03-05T03:10:06.809Z,85.16
2023-03-05T03:16:09.369Z,84.99
2023-03-05T03:18:54.990Z,85.38
2023-03-05T03:21:39.903Z,85.61
2023-03-05T03:24:24.842Z,85.69
2023-03-05T03:27:10.867Z,85.28
2023-03-05T03:29:55.850Z,86.17
2023-03-05T03:32:40.970Z,85.23
2023-03-05T03:35:25.823Z,85.89
2023-03-05T03:38:12.126Z,86.41
2023-03-05T03:40:57.275Z,85.89
2023-03-05T03:43:42.991Z,86.44
2023-03-05T03:46:27.764Z,86.11
2023-03-05T03:49:22.347Z,86.50
2023-03-05T03:52:07.566Z,86.35
2023-03-05T03:54:53.036Z,86.39
2023-03-05T03:57:37.792Z,86.49
2023-03-05T04:00:22.732Z,86.47
2023-03-05T04:03:09.222Z,86.60
2023-03-05T04:05:54.293Z,87.10
2023-03-05T04:08:39.585Z,87.47
2023-03-05T04:11:24.946Z,87.23
2023-03-05T04:14:10.292Z,88.05
2023-03-05T04:16:55.553Z,88.40
2023-03-05T04:19:41.835Z,88.90
2023-03-05T04:22:26.773Z,88.71
2023-03-05T04:25:12.015Z,88.97
2023-03-05T04:27:57.316Z,88.71
2023-03-05T04:30:42.104Z,88.88
2023-03-05T04:33:27.367Z,89.41
2023-03-05T04:36:12.180Z,89.75
2023-03-05T04:38:57.583Z,90.11
2023-03-05T04:41:42.401Z,89.71
2023-03-05T04:44:27.629Z,88.99
2023-03-05T04:47:12.581Z,89.53
2023-03-05T04:49:57.256Z,89.29
2023-03-05T04:52:43.773Z,89.50
2023-03-05T04:55:29.286Z,89.36
2023-03-05T04:58:14.469Z,89.16
2023-03-05T05:01:03.994Z,89.32
2023-03-05T05:03:49.081Z,89.53
2023-03-05T05:06:33.913Z,88.93
2023-03-05T05:09:18.622Z,88.83
2023-03-05T05:12:03.870Z,88.64
2023-03-05T05:14:49.041Z,88.14
2023-03-05T05:17:34.463Z,88.53
2023-03-05T05:20:19.942Z,88.84
2023-03-05T05:23:04.771Z,88.72
2023-03-05T05:26:00.224Z,89.01
2023-03-05T05:28:45.246Z,88.41
2023-03-05T05:31:30.458Z,88.83
2023-03-05T05:34:16.081Z,88.45
2023-03-05T05:37:01.295Z,88.05
2023-03-05T05:39:50.028Z,88.70
2023-03-05T05:42:34.964Z,89.14
2023-03-05T05:45:20.167Z,89.04
2023-03-05T05:48:04.853Z,88.87
2023-03-05T05:50:49.692Z,88.43
2023-03-05T05:53:34.939Z,87.85
2023-03-05T05:56:20.170Z,88.25
2023-03-05T05:59:05.404Z,87.50
2023-03-05T06:01:50.356Z,88.06
2023-03-05T06:04:36.066Z,87.17
2023-03-05T06:07:21.390Z,87.20
2023-03-05T06:10:07.396Z,87.06
2023-03-05T06:12:52.220Z,87.32
2023-03-05T06:15:37.520Z,87.13
2023-03-05T06:18:22.660Z,87.03
2023-03-05T06:21:12.417Z,87.19
2023-03-05T06:23:58.581Z,86.72
2023-03-05T06:26:43.933Z,87.65
2023-03-05T06:29:28.791Z,86.68
2023-03-05T06:32:13.722Z,87.21
2023-03-05T06:34:58.886Z,87.34
2023-03-05T06:37:44.053Z,87.28
2023-03-05T06:40:29.145Z,87.71
2023-03-05T06:43:14.483Z,87.42
2023-03-05T06:46:08.442Z,88.14
2023-03-05T06:48:55.466Z,87.88
2023-03-05T06:51:40.999Z,88.58
2023-03-05T06:54:26.149Z,88.32
2023-03-05T06:57:11.206Z,88.45
2023-03-05T06:59:56.168Z,87.97
2023-03-05T07:02:41.054Z,88.96
2023-03-05T07:05:26.081Z,88.46
2023-03-05T07:08:11.381Z,89.01
2023-03-05T07:10:56.498Z,88.82
2023-03-05T07:13:42.240Z,88.49
2023-03-05T07:16:30.834Z,88.35
2023-03-05T07:19:16.140Z,89.16
2023-03-05T07:22:00.889Z,88.13
2023-03-05T07:24:45.876Z,88.28
2023-03-05T07:27:31.194Z,87.96
2023-03-05T07:30:16.017Z,88.12
2023-03-05T07:33:01.994Z,88.08
2023-03-05T07:35:47.131Z,87.27
2023-03-05T07:38:32.031Z,87.49
2023-03-05T07:41:23.323Z,86.79
2023-03-05T07:44:09.651Z,86.96
2023-03-05T07:46:54.499Z,86.70
2023-03-05T07:49:41.500Z,86.51
2023-03-05T07:52:26.689Z,86.65
2023-03-05T07:55:11.888Z,86.41
2023-03-05T07:57:57.423Z,86.62
2023-03-05T08:00:42.403Z,87.63
2023-03-05T08:03:27.422Z,87.20
2023-03-05T08:06:12.892Z,87.07
2023-03-05T08:08:58.813Z,86.79
2023-03-05T08:11:44.251Z,85.56
2023-03-05T08:14:29.476Z,86.53
2023-03-05T08:17:14.181Z,87.42
2023-03-05T08:20:00.363Z,87.47
2023-03-05T08:22:46.594Z,87.54
2023-03-05T08:25:31.940Z,87.85
2023-03-05T08:28:19.546Z,88.22
2023-03-05T08:31:09.994Z,88.45
2023-03-05T08:33:56.632Z,88.44
2023-03-05T08:36:41.523Z,87.79
2023-03-05T08:39:26.832Z,87.63
2023-03-05T08:42:11.601Z,87.05
2023-03-05T08:44:56.440Z,87.66
2023-03-05T08:47:41.379Z,87.00
2023-03-05T08:50:26.418Z,86.47
2023-03-05T08:53:11.689Z,86.57
2023-03-05T08:55:58.541Z,86.90
2023-03-05T08:58:45.124Z,87.24
2023-03-05T09:01:31.768Z,87.48
2023-03-05T09:04:17.277Z,87.67
2023-03-05T09:07:02.340Z,87.85
2023-03-05T09:09:47.838Z,88.04
2023-03-05T09:12:33.004Z,86.94
2023-03-05T09:15:18.112Z,87.74
2023-03-05T09:18:03.459Z,88.68
2023-03-05T09:20:48.481Z,87.45
2023-03-05T09:23:33.383Z,87.19
2023-03-05T09:26:19.579Z,86.34
2023-03-05T09:29:06.734Z,85.34
2023-03-05T09:31:52.172Z,84.94
2023-03-05T09:34:37.425Z,86.15
2023-03-05T09:37:22.556Z,84.86
2023-03-05T09:40:08.667Z,85.82
2023-03-05T09:43:39.717Z,85.49
2023-03-05T09:46:38.688Z,85.61
2023-03-05T09:49:30.974Z,84.67
2023-03-05T09:52:41.936Z,84.78
2023-03-05T09:55:41.094Z,84.97
2023-03-05T09:58:43.045Z,84.88
2023-03-05T10:01:39.473Z,83.27
2023-03-05T10:04:36.868Z,83.16
2023-03-05T10:07:34.936Z,81.52
2023-03-05T10:10:33.166Z,82.17
2023-03-05T10:13:24.315Z,80.89
2023-03-05T10:16:31.901Z,79.05
2023-03-05T10:19:52.160Z,78.16
2023-03-05T10:22:53.294Z,77.60
2023-03-05T10:25:56.360Z,75.19
2023-03-05T10:28:56.204Z,72.86
2023-03-05T10:31:54.542Z,73.48
2023-03-05T10:35:07.090Z,70.40
2023-03-05T10:38:31.884Z,71.57
2023-03-05T10:41:24.515Z,69.75
2023-03-05T10:44:18.539Z,70.36
2023-03-05T10:47:10.009Z,71.97
2023-03-05T10:49:57.245Z,72.22
2023-03-05T10:52:46.624Z,72.87
2023-03-05T10:55:36.557Z,73.25
2023-03-05T10:58:24.659Z,74.45
2023-03-05T11:01:09.959Z,69.68
2023-03-05T11:03:54.871Z,67.21
2023-03-05T11:06:48.128Z,66.57
2023-03-05T11:09:33.501Z,65.79
2023-03-05T11:12:21.362Z,66.45
2023-03-05T11:15:26.505Z,63.65
2023-03-05T11:18:23.933Z,61.42
2023-03-05T11:21:29.387Z,62.27
2023-03-05T11:24:18.514Z,61.68
2023-03-05T11:27:23.225Z,62.87
2023-03-05T11:30:36.268Z,63.40
2023-03-05T11:33:23.498Z,63.24
2023-03-05T11:36:22.613Z,63.53
2023-03-05T11:39:09.874Z,65.15
2023-03-05T11:42:02.001Z,65.36
2023-03-05T11:44:58.173Z,65.40
2023-03-05T11:47:48.312Z,66.36
2023-03-05T11:50:35.800Z,66.19
2023-03-05T11:53:25.563Z,65.96
2023-03-05T11:56:25.625Z,65.95
2023-03-05T11:59:30.100Z,66.43
2023-03-05T12:02:23.080Z,64.95
2023-03-05T12:05:08.478Z,64.16
2023-03-05T12:08:00.158Z,65.35
2023-03-05T12:10:45.663Z,66.19
2023-03-05T12:13:37.383Z,67.13
2023-03-05T12:16:27.437Z,67.63
2023-03-05T12:19:38.669Z,66.86
2023-03-05T12:22:27.331Z,66.58
2023-03-05T12:25:46.755Z,66.48
2023-03-05T12:28:33.197Z,68.63
2023-03-05T12:31:39.807Z,68.54
2023-03-05T12:34:40.540Z,68.94
2023-03-05T12:37:25.709Z,69.88
2023-03-05T12:40:29.977Z,70.32
2023-03-05T12:43:29.748Z,69.56
2023-03-05T12:46:29.316Z,69.31
2023-03-05T12:49:20.672Z,69.05
2023-03-05T12:52:20.926Z,66.75
2023-03-05T12:55:15.226Z,66.47
2023-03-05T12:58:09.212Z,65.47
2023-03-05T13:01:06.581Z,65.99
2023-03-05T13:04:10.408Z,67.56
2023-03-05T13:07:05.565Z,66.15
2023-03-05T13:09:56.036Z,63.99
2023-03-05T13:12:52.809Z,64.64
2023-03-05T13:15:39.268Z,64.34
2023-03-05T13:18:27.407Z,65.09
2023-03-05T13:21:19.493Z,64.15
2023-03-05T13:24:04.533Z,65.19
2023-03-05T13:26:52.339Z,66.08
2023-03-05T13:29:50.586Z,64.88
2023-03-05T13:32:38.607Z,65.79
2023-03-05T13:35:24.214Z,66.12
2023-03-05T13:38:25.069Z,66.93
2023-03-05T13:41:34.447Z,67.22
2023-03-05T13:44:22.069Z,66.15
2023-03-05T13:47:15.464Z,67.23
2023-03-05T13:50:05.737Z,67.64
2023-03-05T13:52:50.651Z,67.19
2023-03-05T13:55:35.824Z,67.44
2023-03-05T13:58:39.881Z,68.36
2023-03-05T14:01:41.759Z,68.75
2023-03-05T14:04:34.431Z,68.99
2023-03-05T14:07:31.314Z,69.05
2023-03-05T14:10:34.479Z,69.61
2023-03-05T14:13:23.735Z,68.74
2023-03-05T14:16:14.902Z,69.47
2023-03-05T14:19:04.766Z,70.01
2023-03-05T14:21:50.524Z,69.65
2023-03-05T14:24:37.255Z,70.19
2023-03-05T14:27:24.550Z,70.22
2023-03-05T14:30:19.637Z,71.48
2023-03-05T14:33:08.049Z,68.29
2023-03-05T14:35:54.995Z,69.09
2023-03-05T14:38:43.077Z,68.98
2023-03-05T14:41:41.856Z,68.71
2023-03-05T14:44:29.478Z,68.43
2023-03-05T14:47:14.666Z,68.50
2023-03-05T14:49:59.936Z,67.57
2023-03-05T14:52:48.675Z,67.45
2023-03-05T14:55:36.480Z,67.59
2023-03-05T14:58:23.532Z,67.96
2023-03-05T15:01:12.009Z,67.58
2023-03-05T15:03:58.312Z,67.90
2023-03-05T15:06:48.036Z,67.58
2023-03-05T15:09:33.046Z,67.66
2023-03-05T15:12:18.554Z,67.95
2023-03-05T15:15:08.755Z,67.96
2023-03-05T15:17:55.908Z,67.82
2023-03-05T15:20:41.454Z,68.81
2023-03-05T15:23:28.175Z,67.50
2023-03-05T15:26:14.811Z,66.53
2023-03-05T15:29:00.009Z,66.87
2023-03-05T15:31:46.611Z,66.43
2023-03-05T15:34:33.726Z,66.23
2023-03-05T15:37:18.834Z,65.99
2023-03-05T15:40:04.109Z,66.41
2023-03-05T15:42:49.983Z,67.07
2023-03-05T15:45:35.434Z,69.24
2023-03-05T15:48:20.676Z,69.44
2023-03-05T15:51:08.785Z,69.41
2023-03-05T15:53:54.418Z,69.30
2023-03-05T15:56:40.282Z,70.03
2023-03-05T15:59:27.082Z,70.02
2023-03-05T16:02:12.471Z,69.71
2023-03-05T16:04:57.777Z,69.90
2023-03-05T16:07:45.842Z,70.52
2023-03-05T16:10:31.610Z,70.71
2023-03-05T16:13:18.613Z,70.45
2023-03-05T16:16:08.125Z,70.67
2023-03-05T16:18:53.652Z,70.88
2023-03-05T16:21:39.666Z,70.87
2023-03-05T16:24:24.868Z,71.11
2023-03-05T16:27:10.489Z,71.26
2023-03-05T16:29:55.406Z,71.88
2023-03-05T16:32:40.762Z,71.72
2023-03-05T16:35:26.414Z,72.50
2023-03-05T16:38:11.606Z,72.37
2023-03-05T16:41:07.880Z,72.14
2023-03-05T16:43:58.814Z,72.04
2023-03-05T16:46:49.048Z,72.19
2023-03-05T16:49:39.596Z,72.19
2023-03-05T16:52:25.573Z,72.83
2023-03-05T16:55:10.892Z,72.49
2023-03-05T16:57:57.047Z,72.38
2023-03-05T17:00:43.588Z,72.29
2023-03-05T17:03:31.725Z,72.31
2023-03-05T17:06:24.904Z,72.41
2023-03-05T17:09:10.823Z,72.62
2023-03-05T17:11:56.486Z,72.78
2023-03-05T17:14:41.985Z,73.46
2023-03-05T17:17:27.551Z,73.57
2023-03-05T17:20:13.196Z,74.46
2023-03-05T17:22:58.760Z,75.82
2023-03-05T17:25:44.242Z,77.06
2023-03-05T17:28:29.325Z,76.84
2023-03-05T17:31:15.170Z,77.61
2023-03-05T17:34:00.633Z,77.19
2023-03-05T17:36:47.133Z,77.17
2023-03-05T17:39:32.685Z,77.23
2023-03-05T17:42:21.665Z,76.78
2023-03-05T17:45:07.883Z,77.33
2023-03-05T17:47:58.732Z,78.27
2023-03-05T17:50:46.707Z,77.38
2023-03-05T17:53:32.996Z,77.72
2023-03-05T17:56:22.354Z,77.98
2023-03-05T17:59:07.856Z,77.97
2023-03-05T18:01:53.306Z,78.62
2023-03-05T18:04:40.773Z,78.48
2023-03-05T18:07:26.058Z,78.46
2023-03-05T18:10:13.234Z,77.96
2023-03-05T18:12:59.030Z,78.43
2023-03-05T18:15:49.985Z,77.07
2023-03-05T18:18:36.945Z,77.33
2023-03-05T18:21:24.138Z,77.34
2023-03-05T18:24:09.856Z,77.70
2023-03-05T18:26:57.218Z,78.10
2023-03-05T18:29:42.854Z,77.51
2023-03-05T18:32:33.294Z,78.19
2023-03-05T18:35:18.914Z,78.23
2023-03-05T18:38:04.361Z,78.49
2023-03-05T18:40:52.376Z,78.37
2023-03-05T18:43:39.882Z,78.41
2023-03-05T18:46:24.876Z,78.97
2023-03-05T18:49:09.955Z,79.04
2023-03-05T18:51:55.713Z,79.34
2023-03-05T18:54:41.262Z,79.63
2023-03-05T18:57:28.148Z,79.92
2023-03-05T19:00:15.869Z,79.72
2023-03-05T19:03:03.480Z,80.43
2023-03-05T19:05:50.082Z,80.81
2023-03-05T19:08:35.725Z,80.83
2023-03-05T19:11:24.232Z,80.79
2023-03-05T19:14:11.044Z,80.82
2023-03-05T19:16:55.860Z,80.69
2023-03-05T19:19:42.759Z,80.98
2023-03-05T19:22:29.469Z,80.83
2023-03-05T19:25:21.805Z,81.32
2023-03-05T19:28:06.884Z,80.89
2023-03-05T19:30:51.936Z,81.53
2023-03-05T19:33:36.728Z,81.10
2023-03-05T19:36:21.955Z,81.63
2023-03-05T19:39:09.249Z,81.26
2023-03-05T19:41:57.397Z,82.00
2023-03-05T19:44:42.628Z,81.71
2023-03-05T19:47:28.063Z,81.63
2023-03-05T19:50:15.234Z,81.77
2023-03-05T19:53:01.669Z,81.94
2023-03-05T19:55:47.655Z,82.19
2023-03-05T19:58:37.961Z,82.44
2023-03-05T20:01:27.313Z,82.29
2023-03-05T20:04:19.634Z,81.83
2023-03-05T20:07:07.225Z,82.04
2023-03-05T20:09:55.237Z,82.38
2023-03-05T20:12:40.679Z,82.23
2023-03-05T20:15:30.209Z,82.56
2023-03-05T20:18:16.011Z,81.52
2023-03-05T20:21:04.798Z,80.91
2023-03-05T20:23:54.815Z,81.42
2023-03-05T20:26:41.673Z,81.15
2023-03-05T20:29:33.023Z,80.98
2023-03-05T20:32:18.935Z,81.12
2023-03-05T20:35:05.883Z,81.54
2023-03-05T20:38:20.531Z,81.16
2023-03-05T20:41:08.390Z,80.87
2023-03-05T20:43:53.884Z,80.46
2023-03-05T20:47:44.028Z,80.60
2023-03-05T20:50:30.487Z,80.45
2023-03-05T20:53:15.922Z,79.80
2023-03-05T20:56:02.262Z,79.66
2023-03-05T20:58:47.276Z,79.08
2023-03-05T21:01:34.193Z,78.84
2023-03-05T21:04:19.257Z,79.19
2023-03-05T21:07:04.218Z,79.99
2023-03-05T21:09:49.516Z,79.33
2023-03-05T21:12:35.257Z,79.28
2023-03-05T21:15:25.941Z,78.35
2023-03-05T21:18:11.249Z,78.92
2023-03-05T21:20:56.758Z,78.86
2023-03-05T21:23:41.863Z,78.74
2023-03-05T21:26:29.156Z,78.95
2023-03-05T21:29:16.712Z,78.59
2023-03-05T21:32:02.115Z,78.67
2023-03-05T21:34:47.164Z,78.30
2023-03-05T21:37:32.492Z,78.15
2023-03-05T21:40:19.892Z,78.24
2023-03-05T21:43:05.429Z,78.19
2023-03-05T21:45:53.438Z,78.02
2023-03-05T21:48:38.646Z,77.66
2023-03-05T21:51:46.745Z,77.89
2023-03-05T21:54:31.660Z,78.18
2023-03-05T21:57:16.544Z,77.42
2023-03-05T22:00:01.733Z,77.86
2023-03-05T22:02:46.850Z,77.72
2023-03-05T22:05:32.242Z,78.10
2023-03-05T22:08:16.975Z,78.03
2023-03-05T22:11:01.976Z,78.13
2023-03-05T22:13:47.241Z,77.75
2023-03-05T22:16:33.505Z,77.61
2023-03-05T22:19:19.773Z,77.47
2023-03-05T22:22:04.803Z,77.51
2023-03-05T22:24:50.210Z,77.41
2023-03-05T22:27:35.160Z,77.61
2023-03-05T22:30:20.216Z,77.28
2023-03-05T22:33:05.405Z,77.60
2023-03-05T22:35:50.461Z,77.31
2023-03-05T22:38:36.884Z,76.98
2023-03-05T22:41:22.586Z,77.75
2023-03-05T22:44:07.583Z,76.85
2023-03-05T22:46:52.417Z,77.71
2023-03-05T22:49:37.584Z,78.03
2023-03-05T22:52:22.768Z,76.74
2023-03-05T22:55:08.542Z,76.71
2023-03-05T22:57:53.391Z,77.02
2023-03-05T23:00:38.147Z,77.13
2023-03-05T23:03:25.598Z,76.87
2023-03-05T23:06:10.917Z,76.59
2023-03-05T23:08:55.916Z,77.52
2023-03-05T23:11:40.778Z,76.90
2023-03-05T23:14:25.741Z,77.58
2023-03-05T23:17:11.029Z,77.14
2023-03-05T23:19:55.909Z,77.24
2023-03-05T23:22:41.271Z,77.92
2023-03-05T23:25:29.919Z,77.63
2023-03-05T23:28:14.740Z,78.10
2023-03-05T23:30:59.601Z,76.88
2023-03-05T23:33:44.928Z,78.03
2023-03-05T23:36:30.275Z,77.87
2023-03-05T23:39:15.400Z,78.05
2023-03-05T23:42:00.216Z,78.36
2023-03-05T23:44:45.132Z,77.85
2023-03-05T23:47:31.474Z,77.71
2023-03-05T23:50:21.493Z,77.29
2023-03-05T23:53:06.652Z,77.72
2023-03-05T23:55:52.640Z,77.88
2023-03-05T23:58:39.121Z,77.43
